sensor_id;sensor_type;location;lat;lon;timestamp;P1;durP1;ratioP1;P2;durP2;ratioP2
78856;SDS011;68207;50.078;19.936;2023-04-29T00:00:55;14.00;;;8.80;;
78856;SDS011;68207;50.078;19.936;2023-04-29T00:03:20;11.40;;;8.40;;
78856;SDS011;68207;50.078;19.936;2023-04-29T00:05:46;12.00;;;8.50;;
78856;SDS011;68207;50.078;19.936;2023-04-29T00:08:11;12.20;;;8.50;;
78856;SDS011;68207;50.078;19.936;2023-04-29T00:10:37;13.10;;;9.00;;
78856;SDS011;68207;50.078;19.936;2023-04-29T00:13:03;14.00;;;8.40;;
78856;SDS011;68207;50.078;19.936;2023-04-29T00:15:28;9.90;;;7.80;;
78856;SDS011;68207;50.078;19.936;2023-04-29T00:17:54;14.00;;;9.90;;
78856;SDS011;68207;50.078;19.936;2023-04-29T00:20:19;11.30;;;8.60;;
78856;SDS011;68207;50.078;19.936;2023-04-29T00:22:44;12.00;;;8.60;;
78856;SDS011;68207;50.078;19.936;2023-04-29T00:25:10;15.20;;;9.80;;
78856;SDS011;68207;50.078;19.936;2023-04-29T00:27:36;11.90;;;8.80;;
78856;SDS011;68207;50.078;19.936;2023-04-29T00:30:01;12.80;;;9.00;;
78856;SDS011;68207;50.078;19.936;2023-04-29T00:32:27;12.30;;;8.80;;
78856;SDS011;68207;50.078;19.936;2023-04-29T00:34:53;13.20;;;9.90;;
78856;SDS011;68207;50.078;19.936;2023-04-29T00:37:18;16.20;;;9.60;;
78856;SDS011;68207;50.078;19.936;2023-04-29T00:39:43;11.90;;;9.60;;
78856;SDS011;68207;50.078;19.936;2023-04-29T00:42:09;12.30;;;9.50;;
78856;SDS011;68207;50.078;19.936;2023-04-29T00:44:35;14.60;;;10.70;;
78856;SDS011;68207;50.078;19.936;2023-04-29T00:47:01;13.00;;;9.80;;
78856;SDS011;68207;50.078;19.936;2023-04-29T00:49:26;14.60;;;10.60;;
78856;SDS011;68207;50.078;19.936;2023-04-29T00:51:52;13.10;;;9.20;;
78856;SDS011;68207;50.078;19.936;2023-04-29T00:54:18;12.50;;;9.40;;
78856;SDS011;68207;50.078;19.936;2023-04-29T00:56:44;14.90;;;10.00;;
78856;SDS011;68207;50.078;19.936;2023-04-29T00:59:11;16.90;;;10.60;;
78856;SDS011;68207;50.078;19.936;2023-04-29T01:01:37;13.30;;;8.90;;
78856;SDS011;68207;50.078;19.936;2023-04-29T01:04:03;16.70;;;9.90;;
78856;SDS011;68207;50.078;19.936;2023-04-29T01:09:27;13.80;;;9.80;;
78856;SDS011;68207;50.078;19.936;2023-04-29T01:14:42;14.10;;;9.60;;
78856;SDS011;68207;50.078;19.936;2023-04-29T01:17:14;14.60;;;9.60;;
78856;SDS011;68207;50.078;19.936;2023-04-29T01:19:45;13.10;;;9.90;;
78856;SDS011;68207;50.078;19.936;2023-04-29T01:22:14;11.90;;;9.60;;
78856;SDS011;68207;50.078;19.936;2023-04-29T01:24:41;15.70;;;10.30;;
78856;SDS011;68207;50.078;19.936;2023-04-29T01:35:16;12.20;;;9.60;;
78856;SDS011;68207;50.078;19.936;2023-04-29T01:38:02;14.20;;;10.10;;
78856;SDS011;68207;50.078;19.936;2023-04-29T01:40:42;13.00;;;9.20;;
78856;SDS011;68207;50.078;19.936;2023-04-29T01:43:12;14.60;;;9.40;;
78856;SDS011;68207;50.078;19.936;2023-04-29T01:45:39;15.10;;;9.70;;
78856;SDS011;68207;50.078;19.936;2023-04-29T01:48:05;16.10;;;10.20;;
78856;SDS011;68207;50.078;19.936;2023-04-29T01:50:31;12.30;;;9.90;;
78856;SDS011;68207;50.078;19.936;2023-04-29T01:52:56;14.30;;;10.30;;
78856;SDS011;68207;50.078;19.936;2023-04-29T01:55:22;13.90;;;9.60;;
78856;SDS011;68207;50.078;19.936;2023-04-29T01:57:47;14.20;;;10.00;;
78856;SDS011;68207;50.078;19.936;2023-04-29T02:00:13;15.10;;;10.30;;
78856;SDS011;68207;50.078;19.936;2023-04-29T02:02:38;15.50;;;10.50;;
78856;SDS011;68207;50.078;19.936;2023-04-29T02:05:03;12.50;;;9.30;;
78856;SDS011;68207;50.078;19.936;2023-04-29T02:07:29;13.80;;;10.40;;
78856;SDS011;68207;50.078;19.936;2023-04-29T02:09:55;14.30;;;10.20;;
78856;SDS011;68207;50.078;19.936;2023-04-29T02:12:20;15.90;;;11.20;;
78856;SDS011;68207;50.078;19.936;2023-04-29T02:14:45;13.70;;;9.50;;
78856;SDS011;68207;50.078;19.936;2023-04-29T02:17:12;12.50;;;10.70;;
78856;SDS011;68207;50.078;19.936;2023-04-29T02:19:38;14.30;;;10.20;;
78856;SDS011;68207;50.078;19.936;2023-04-29T02:22:03;15.20;;;9.50;;
78856;SDS011;68207;50.078;19.936;2023-04-29T02:24:29;14.30;;;10.40;;
78856;SDS011;68207;50.078;19.936;2023-04-29T02:26:54;17.00;;;10.70;;
78856;SDS011;68207;50.078;19.936;2023-04-29T02:29:20;13.60;;;9.30;;
78856;SDS011;68207;50.078;19.936;2023-04-29T02:31:45;14.10;;;9.70;;
78856;SDS011;68207;50.078;19.936;2023-04-29T02:34:11;12.90;;;10.00;;
78856;SDS011;68207;50.078;19.936;2023-04-29T02:36:36;13.40;;;9.60;;
78856;SDS011;68207;50.078;19.936;2023-04-29T02:39:01;14.70;;;10.20;;
78856;SDS011;68207;50.078;19.936;2023-04-29T02:41:27;12.30;;;9.10;;
78856;SDS011;68207;50.078;19.936;2023-04-29T02:43:52;12.40;;;9.60;;
78856;SDS011;68207;50.078;19.936;2023-04-29T02:46:17;13.20;;;9.80;;
78856;SDS011;68207;50.078;19.936;2023-04-29T02:48:43;12.90;;;9.30;;
78856;SDS011;68207;50.078;19.936;2023-04-29T02:51:08;13.80;;;9.90;;
78856;SDS011;68207;50.078;19.936;2023-04-29T02:53:34;15.10;;;9.60;;
78856;SDS011;68207;50.078;19.936;2023-04-29T02:55:59;14.40;;;9.40;;
78856;SDS011;68207;50.078;19.936;2023-04-29T02:58:25;19.20;;;13.40;;
78856;SDS011;68207;50.078;19.936;2023-04-29T03:00:50;18.80;;;13.60;;
78856;SDS011;68207;50.078;19.936;2023-04-29T03:03:15;19.50;;;13.00;;
78856;SDS011;68207;50.078;19.936;2023-04-29T03:05:41;17.60;;;12.80;;
78856;SDS011;68207;50.078;19.936;2023-04-29T03:08:07;19.90;;;12.80;;
78856;SDS011;68207;50.078;19.936;2023-04-29T03:10:34;19.30;;;12.90;;
78856;SDS011;68207;50.078;19.936;2023-04-29T03:12:59;17.80;;;11.60;;
78856;SDS011;68207;50.078;19.936;2023-04-29T03:15:25;18.00;;;12.40;;
78856;SDS011;68207;50.078;19.936;2023-04-29T03:17:50;18.10;;;12.20;;
78856;SDS011;68207;50.078;19.936;2023-04-29T03:20:16;15.20;;;11.30;;
78856;SDS011;68207;50.078;19.936;2023-04-29T03:22:41;16.20;;;11.70;;
78856;SDS011;68207;50.078;19.936;2023-04-29T03:25:06;15.00;;;11.20;;
78856;SDS011;68207;50.078;19.936;2023-04-29T03:27:34;14.60;;;10.80;;
78856;SDS011;68207;50.078;19.936;2023-04-29T03:29:59;15.00;;;11.50;;
78856;SDS011;68207;50.078;19.936;2023-04-29T03:32:25;12.80;;;10.20;;
78856;SDS011;68207;50.078;19.936;2023-04-29T03:34:50;17.80;;;11.00;;
78856;SDS011;68207;50.078;19.936;2023-04-29T03:37:16;16.80;;;11.20;;
78856;SDS011;68207;50.078;19.936;2023-04-29T03:39:41;18.30;;;11.00;;
78856;SDS011;68207;50.078;19.936;2023-04-29T03:42:06;18.10;;;11.60;;
78856;SDS011;68207;50.078;19.936;2023-04-29T03:44:32;14.10;;;10.00;;
78856;SDS011;68207;50.078;19.936;2023-04-29T03:46:57;14.60;;;10.70;;
78856;SDS011;68207;50.078;19.936;2023-04-29T03:49:23;21.60;;;14.10;;
78856;SDS011;68207;50.078;19.936;2023-04-29T03:51:48;22.70;;;13.70;;
78856;SDS011;68207;50.078;19.936;2023-04-29T03:54:14;20.20;;;13.60;;
78856;SDS011;68207;50.078;19.936;2023-04-29T03:56:39;21.20;;;14.00;;
78856;SDS011;68207;50.078;19.936;2023-04-29T03:59:05;18.70;;;13.60;;
78856;SDS011;68207;50.078;19.936;2023-04-29T04:01:31;18.20;;;12.30;;
78856;SDS011;68207;50.078;19.936;2023-04-29T04:03:56;19.50;;;12.40;;
78856;SDS011;68207;50.078;19.936;2023-04-29T04:06:22;16.90;;;11.60;;
78856;SDS011;68207;50.078;19.936;2023-04-29T04:08:47;22.20;;;12.30;;
78856;SDS011;68207;50.078;19.936;2023-04-29T04:11:12;19.60;;;12.10;;
78856;SDS011;68207;50.078;19.936;2023-04-29T04:13:39;14.80;;;12.60;;
78856;SDS011;68207;50.078;19.936;2023-04-29T04:16:07;21.10;;;11.90;;
78856;SDS011;68207;50.078;19.936;2023-04-29T04:18:32;16.80;;;11.70;;
78856;SDS011;68207;50.078;19.936;2023-04-29T04:21:03;16.90;;;12.30;;
78856;SDS011;68207;50.078;19.936;2023-04-29T04:23:29;20.50;;;11.20;;
78856;SDS011;68207;50.078;19.936;2023-04-29T04:25:54;15.60;;;11.70;;
78856;SDS011;68207;50.078;19.936;2023-04-29T04:28:20;15.40;;;12.10;;
78856;SDS011;68207;50.078;19.936;2023-04-29T04:30:45;15.40;;;11.90;;
78856;SDS011;68207;50.078;19.936;2023-04-29T04:33:11;15.80;;;11.70;;
78856;SDS011;68207;50.078;19.936;2023-04-29T04:35:36;21.20;;;15.80;;
78856;SDS011;68207;50.078;19.936;2023-04-29T04:38:01;21.60;;;14.70;;
78856;SDS011;68207;50.078;19.936;2023-04-29T04:40:26;23.80;;;14.90;;
78856;SDS011;68207;50.078;19.936;2023-04-29T04:42:52;19.60;;;13.90;;
78856;SDS011;68207;50.078;19.936;2023-04-29T04:45:17;19.80;;;14.00;;
78856;SDS011;68207;50.078;19.936;2023-04-29T04:47:42;23.50;;;13.80;;
78856;SDS011;68207;50.078;19.936;2023-04-29T04:50:07;19.70;;;13.70;;
78856;SDS011;68207;50.078;19.936;2023-04-29T04:52:33;16.90;;;12.10;;
78856;SDS011;68207;50.078;19.936;2023-04-29T04:54:59;19.80;;;13.20;;
78856;SDS011;68207;50.078;19.936;2023-04-29T04:57:24;17.40;;;12.30;;
78856;SDS011;68207;50.078;19.936;2023-04-29T04:59:50;16.70;;;11.70;;
78856;SDS011;68207;50.078;19.936;2023-04-29T05:02:15;19.70;;;12.00;;
78856;SDS011;68207;50.078;19.936;2023-04-29T05:04:41;17.40;;;11.70;;
78856;SDS011;68207;50.078;19.936;2023-04-29T05:07:06;20.30;;;13.50;;
78856;SDS011;68207;50.078;19.936;2023-04-29T05:09:31;17.30;;;12.10;;
78856;SDS011;68207;50.078;19.936;2023-04-29T05:11:56;17.70;;;12.10;;
78856;SDS011;68207;50.078;19.936;2023-04-29T05:14:23;22.30;;;15.80;;
78856;SDS011;68207;50.078;19.936;2023-04-29T05:16:49;20.30;;;14.90;;
78856;SDS011;68207;50.078;19.936;2023-04-29T05:19:16;24.30;;;15.50;;
78856;SDS011;68207;50.078;19.936;2023-04-29T05:21:42;20.20;;;15.00;;
78856;SDS011;68207;50.078;19.936;2023-04-29T05:24:07;19.90;;;14.80;;
78856;SDS011;68207;50.078;19.936;2023-04-29T05:26:32;21.20;;;14.40;;
78856;SDS011;68207;50.078;19.936;2023-04-29T05:28:58;18.80;;;13.60;;
78856;SDS011;68207;50.078;19.936;2023-04-29T05:31:23;17.90;;;12.40;;
78856;SDS011;68207;50.078;19.936;2023-04-29T05:33:49;18.20;;;12.80;;
78856;SDS011;68207;50.078;19.936;2023-04-29T05:36:15;19.00;;;13.20;;
78856;SDS011;68207;50.078;19.936;2023-04-29T05:38:40;16.20;;;13.20;;
78856;SDS011;68207;50.078;19.936;2023-04-29T05:41:06;17.50;;;12.80;;
78856;SDS011;68207;50.078;19.936;2023-04-29T05:43:31;18.20;;;12.80;;
78856;SDS011;68207;50.078;19.936;2023-04-29T05:45:57;19.60;;;13.70;;
78856;SDS011;68207;50.078;19.936;2023-04-29T05:48:22;14.90;;;12.00;;
78856;SDS011;68207;50.078;19.936;2023-04-29T05:50:48;19.30;;;12.80;;
78856;SDS011;68207;50.078;19.936;2023-04-29T05:53:16;23.90;;;16.20;;
78856;SDS011;68207;50.078;19.936;2023-04-29T05:55:41;24.80;;;17.90;;
78856;SDS011;68207;50.078;19.936;2023-04-29T05:58:08;26.00;;;16.50;;
78856;SDS011;68207;50.078;19.936;2023-04-29T06:00:34;25.50;;;17.10;;
78856;SDS011;68207;50.078;19.936;2023-04-29T06:02:59;24.50;;;16.10;;
78856;SDS011;68207;50.078;19.936;2023-04-29T06:05:25;22.90;;;15.00;;
78856;SDS011;68207;50.078;19.936;2023-04-29T06:07:50;20.40;;;14.20;;
78856;SDS011;68207;50.078;19.936;2023-04-29T06:10:16;18.30;;;14.10;;
78856;SDS011;68207;50.078;19.936;2023-04-29T06:12:41;23.50;;;14.40;;
78856;SDS011;68207;50.078;19.936;2023-04-29T06:15:06;17.40;;;13.70;;
78856;SDS011;68207;50.078;19.936;2023-04-29T06:17:32;19.60;;;14.60;;
78856;SDS011;68207;50.078;19.936;2023-04-29T06:19:57;20.80;;;12.90;;
78856;SDS011;68207;50.078;19.936;2023-04-29T06:22:23;18.40;;;12.90;;
78856;SDS011;68207;50.078;19.936;2023-04-29T06:24:48;16.60;;;12.00;;
78856;SDS011;68207;50.078;19.936;2023-04-29T06:27:16;21.10;;;14.40;;
78856;SDS011;68207;50.078;19.936;2023-04-29T06:29:42;18.60;;;13.50;;
78856;SDS011;68207;50.078;19.936;2023-04-29T06:32:07;15.90;;;11.70;;
78856;SDS011;68207;50.078;19.936;2023-04-29T06:34:32;18.10;;;11.90;;
78856;SDS011;68207;50.078;19.936;2023-04-29T06:36:58;17.30;;;13.30;;
78856;SDS011;68207;50.078;19.936;2023-04-29T06:39:23;13.90;;;10.70;;
78856;SDS011;68207;50.078;19.936;2023-04-29T06:41:48;17.50;;;10.50;;
78856;SDS011;68207;50.078;19.936;2023-04-29T06:44:14;14.10;;;10.50;;
78856;SDS011;68207;50.078;19.936;2023-04-29T06:46:40;15.40;;;10.80;;
78856;SDS011;68207;50.078;19.936;2023-04-29T06:49:06;16.00;;;10.90;;
78856;SDS011;68207;50.078;19.936;2023-04-29T06:51:32;14.50;;;11.10;;
78856;SDS011;68207;50.078;19.936;2023-04-29T06:53:57;14.90;;;10.50;;
78856;SDS011;68207;50.078;19.936;2023-04-29T06:56:22;14.20;;;10.70;;
78856;SDS011;68207;50.078;19.936;2023-04-29T06:58:48;15.00;;;10.60;;
78856;SDS011;68207;50.078;19.936;2023-04-29T07:01:13;12.10;;;10.00;;
78856;SDS011;68207;50.078;19.936;2023-04-29T07:03:38;14.60;;;9.40;;
78856;SDS011;68207;50.078;19.936;2023-04-29T07:06:03;13.00;;;10.20;;
78856;SDS011;68207;50.078;19.936;2023-04-29T07:08:29;14.20;;;9.30;;
78856;SDS011;68207;50.078;19.936;2023-04-29T07:10:54;12.60;;;8.50;;
78856;SDS011;68207;50.078;19.936;2023-04-29T07:13:20;12.60;;;8.00;;
78856;SDS011;68207;50.078;19.936;2023-04-29T07:15:46;16.30;;;8.70;;
78856;SDS011;68207;50.078;19.936;2023-04-29T07:18:11;12.70;;;8.90;;
78856;SDS011;68207;50.078;19.936;2023-04-29T07:20:36;11.50;;;8.40;;
78856;SDS011;68207;50.078;19.936;2023-04-29T07:23:02;12.70;;;8.70;;
78856;SDS011;68207;50.078;19.936;2023-04-29T07:25:27;10.70;;;8.70;;
78856;SDS011;68207;50.078;19.936;2023-04-29T07:27:55;10.00;;;8.30;;
78856;SDS011;68207;50.078;19.936;2023-04-29T07:30:21;10.40;;;7.60;;
78856;SDS011;68207;50.078;19.936;2023-04-29T07:32:47;10.90;;;7.80;;
78856;SDS011;68207;50.078;19.936;2023-04-29T07:35:13;10.80;;;7.80;;
78856;SDS011;68207;50.078;19.936;2023-04-29T07:37:38;9.40;;;7.50;;
78856;SDS011;68207;50.078;19.936;2023-04-29T07:40:03;10.80;;;8.10;;
78856;SDS011;68207;50.078;19.936;2023-04-29T07:42:29;10.20;;;7.60;;
78856;SDS011;68207;50.078;19.936;2023-04-29T07:44:54;9.60;;;7.40;;
78856;SDS011;68207;50.078;19.936;2023-04-29T07:47:20;10.60;;;7.80;;
78856;SDS011;68207;50.078;19.936;2023-04-29T07:49:45;10.20;;;7.30;;
78856;SDS011;68207;50.078;19.936;2023-04-29T07:52:10;10.40;;;7.40;;
78856;SDS011;68207;50.078;19.936;2023-04-29T07:54:35;8.20;;;6.70;;
78856;SDS011;68207;50.078;19.936;2023-04-29T07:57:01;10.50;;;8.00;;
78856;SDS011;68207;50.078;19.936;2023-04-29T07:59:28;9.40;;;6.90;;
78856;SDS011;68207;50.078;19.936;2023-04-29T08:01:54;12.90;;;6.80;;
78856;SDS011;68207;50.078;19.936;2023-04-29T08:04:19;8.90;;;6.40;;
78856;SDS011;68207;50.078;19.936;2023-04-29T08:06:45;9.90;;;6.80;;
78856;SDS011;68207;50.078;19.936;2023-04-29T08:09:10;6.10;;;4.40;;
78856;SDS011;68207;50.078;19.936;2023-04-29T08:11:36;7.60;;;3.90;;
78856;SDS011;68207;50.078;19.936;2023-04-29T08:14:01;5.70;;;4.10;;
78856;SDS011;68207;50.078;19.936;2023-04-29T08:16:26;4.70;;;3.90;;
78856;SDS011;68207;50.078;19.936;2023-04-29T08:18:52;6.80;;;3.80;;
78856;SDS011;68207;50.078;19.936;2023-04-29T08:21:18;7.40;;;4.00;;
78856;SDS011;68207;50.078;19.936;2023-04-29T08:23:43;5.20;;;3.50;;
78856;SDS011;68207;50.078;19.936;2023-04-29T08:26:09;5.70;;;3.90;;
78856;SDS011;68207;50.078;19.936;2023-04-29T08:28:36;4.70;;;3.60;;
78856;SDS011;68207;50.078;19.936;2023-04-29T08:31:02;6.70;;;4.20;;
78856;SDS011;68207;50.078;19.936;2023-04-29T08:33:41;7.30;;;4.10;;
78856;SDS011;68207;50.078;19.936;2023-04-29T08:36:06;5.50;;;3.90;;
78856;SDS011;68207;50.078;19.936;2023-04-29T08:38:32;7.60;;;4.20;;
78856;SDS011;68207;50.078;19.936;2023-04-29T08:40:57;6.00;;;4.10;;
78856;SDS011;68207;50.078;19.936;2023-04-29T08:43:23;5.70;;;3.80;;
78856;SDS011;68207;50.078;19.936;2023-04-29T08:45:49;5.00;;;3.40;;
78856;SDS011;68207;50.078;19.936;2023-04-29T08:48:14;6.00;;;4.00;;
78856;SDS011;68207;50.078;19.936;2023-04-29T08:50:41;6.30;;;4.60;;
78856;SDS011;68207;50.078;19.936;2023-04-29T08:53:07;4.80;;;3.10;;
78856;SDS011;68207;50.078;19.936;2023-04-29T08:55:40;4.90;;;3.80;;
78856;SDS011;68207;50.078;19.936;2023-04-29T08:58:07;6.40;;;4.20;;
78856;SDS011;68207;50.078;19.936;2023-04-29T09:00:33;4.40;;;3.60;;
78856;SDS011;68207;50.078;19.936;2023-04-29T09:03:01;5.20;;;3.90;;
78856;SDS011;68207;50.078;19.936;2023-04-29T09:05:35;5.20;;;4.40;;
78856;SDS011;68207;50.078;19.936;2023-04-29T09:08:03;5.00;;;3.80;;
78856;SDS011;68207;50.078;19.936;2023-04-29T09:10:29;5.40;;;3.90;;
78856;SDS011;68207;50.078;19.936;2023-04-29T09:12:56;6.40;;;4.30;;
78856;SDS011;68207;50.078;19.936;2023-04-29T09:15:22;7.50;;;4.30;;
78856;SDS011;68207;50.078;19.936;2023-04-29T09:17:48;7.10;;;4.10;;
78856;SDS011;68207;50.078;19.936;2023-04-29T09:22:51;5.80;;;3.90;;
78856;SDS011;68207;50.078;19.936;2023-04-29T09:25:18;4.80;;;3.50;;
78856;SDS011;68207;50.078;19.936;2023-04-29T09:27:43;7.30;;;3.50;;
78856;SDS011;68207;50.078;19.936;2023-04-29T09:30:09;7.10;;;3.60;;
78856;SDS011;68207;50.078;19.936;2023-04-29T09:32:36;6.80;;;3.70;;
78856;SDS011;68207;50.078;19.936;2023-04-29T09:35:20;5.70;;;3.50;;
78856;SDS011;68207;50.078;19.936;2023-04-29T09:37:45;6.60;;;3.60;;
78856;SDS011;68207;50.078;19.936;2023-04-29T09:42:56;6.50;;;4.30;;
78856;SDS011;68207;50.078;19.936;2023-04-29T09:45:41;4.70;;;3.90;;
78856;SDS011;68207;50.078;19.936;2023-04-29T09:48:08;5.10;;;3.10;;
78856;SDS011;68207;50.078;19.936;2023-04-29T09:50:35;4.70;;;3.70;;
78856;SDS011;68207;50.078;19.936;2023-04-29T09:53:02;5.60;;;4.20;;
78856;SDS011;68207;50.078;19.936;2023-04-29T09:55:28;7.60;;;4.80;;
78856;SDS011;68207;50.078;19.936;2023-04-29T09:57:56;6.80;;;3.80;;
78856;SDS011;68207;50.078;19.936;2023-04-29T10:00:22;4.40;;;3.30;;
78856;SDS011;68207;50.078;19.936;2023-04-29T10:02:50;6.50;;;3.50;;
78856;SDS011;68207;50.078;19.936;2023-04-29T10:05:18;7.80;;;4.20;;
78856;SDS011;68207;50.078;19.936;2023-04-29T10:07:45;5.70;;;3.80;;
78856;SDS011;68207;50.078;19.936;2023-04-29T10:10:12;6.90;;;3.90;;
78856;SDS011;68207;50.078;19.936;2023-04-29T10:12:39;6.00;;;3.90;;
78856;SDS011;68207;50.078;19.936;2023-04-29T10:15:10;6.90;;;3.90;;
78856;SDS011;68207;50.078;19.936;2023-04-29T10:18:19;5.50;;;3.60;;
78856;SDS011;68207;50.078;19.936;2023-04-29T10:20:46;7.20;;;4.20;;
78856;SDS011;68207;50.078;19.936;2023-04-29T10:23:12;4.30;;;3.60;;
78856;SDS011;68207;50.078;19.936;2023-04-29T10:25:40;5.50;;;3.40;;
78856;SDS011;68207;50.078;19.936;2023-04-29T10:28:11;6.60;;;3.90;;
78856;SDS011;68207;50.078;19.936;2023-04-29T10:30:41;4.90;;;3.90;;
78856;SDS011;68207;50.078;19.936;2023-04-29T10:33:07;7.80;;;4.20;;
78856;SDS011;68207;50.078;19.936;2023-04-29T10:35:34;6.10;;;4.10;;
78856;SDS011;68207;50.078;19.936;2023-04-29T10:38:00;5.50;;;3.50;;
78856;SDS011;68207;50.078;19.936;2023-04-29T10:40:40;6.70;;;4.30;;
78856;SDS011;68207;50.078;19.936;2023-04-29T10:43:12;6.10;;;4.30;;
78856;SDS011;68207;50.078;19.936;2023-04-29T10:45:39;7.50;;;4.40;;
78856;SDS011;68207;50.078;19.936;2023-04-29T10:48:08;5.20;;;3.40;;
78856;SDS011;68207;50.078;19.936;2023-04-29T10:53:13;7.60;;;4.30;;
78856;SDS011;68207;50.078;19.936;2023-04-29T10:55:40;4.60;;;3.40;;
78856;SDS011;68207;50.078;19.936;2023-04-29T10:58:32;6.10;;;3.60;;
78856;SDS011;68207;50.078;19.936;2023-04-29T11:01:03;5.60;;;3.50;;
78856;SDS011;68207;50.078;19.936;2023-04-29T11:06:13;8.70;;;3.60;;
78856;SDS011;68207;50.078;19.936;2023-04-29T11:11:05;7.30;;;3.40;;
78856;SDS011;68207;50.078;19.936;2023-04-29T11:13:37;7.80;;;3.40;;
78856;SDS011;68207;50.078;19.936;2023-04-29T11:16:07;4.30;;;3.40;;
78856;SDS011;68207;50.078;19.936;2023-04-29T11:18:34;5.20;;;3.60;;
78856;SDS011;68207;50.078;19.936;2023-04-29T11:23:35;5.80;;;3.80;;
78856;SDS011;68207;50.078;19.936;2023-04-29T11:26:02;7.00;;;4.40;;
78856;SDS011;68207;50.078;19.936;2023-04-29T11:28:29;6.40;;;4.30;;
78856;SDS011;68207;50.078;19.936;2023-04-29T11:30:55;5.50;;;3.70;;
78856;SDS011;68207;50.078;19.936;2023-04-29T11:33:22;5.80;;;4.10;;
78856;SDS011;68207;50.078;19.936;2023-04-29T11:38:13;6.70;;;4.20;;
78856;SDS011;68207;50.078;19.936;2023-04-29T11:40:42;4.40;;;3.40;;
78856;SDS011;68207;50.078;19.936;2023-04-29T11:43:19;6.20;;;4.30;;
78856;SDS011;68207;50.078;19.936;2023-04-29T11:45:46;5.80;;;3.90;;
78856;SDS011;68207;50.078;19.936;2023-04-29T11:50:47;6.30;;;3.90;;
78856;SDS011;68207;50.078;19.936;2023-04-29T11:53:15;6.30;;;4.10;;
78856;SDS011;68207;50.078;19.936;2023-04-29T11:55:41;6.10;;;4.10;;
78856;SDS011;68207;50.078;19.936;2023-04-29T11:58:10;6.40;;;4.20;;
78856;SDS011;68207;50.078;19.936;2023-04-29T12:00:35;4.60;;;4.10;;
78856;SDS011;68207;50.078;19.936;2023-04-29T12:03:02;6.00;;;4.10;;
78856;SDS011;68207;50.078;19.936;2023-04-29T12:05:32;5.50;;;4.20;;
78856;SDS011;68207;50.078;19.936;2023-04-29T12:07:57;7.20;;;4.40;;
78856;SDS011;68207;50.078;19.936;2023-04-29T12:10:22;5.50;;;4.30;;
78856;SDS011;68207;50.078;19.936;2023-04-29T12:12:48;6.10;;;4.00;;
78856;SDS011;68207;50.078;19.936;2023-04-29T12:15:13;7.30;;;4.40;;
78856;SDS011;68207;50.078;19.936;2023-04-29T12:17:39;7.50;;;4.40;;
78856;SDS011;68207;50.078;19.936;2023-04-29T12:20:05;5.20;;;4.00;;
78856;SDS011;68207;50.078;19.936;2023-04-29T12:22:33;7.10;;;4.40;;
78856;SDS011;68207;50.078;19.936;2023-04-29T12:24:58;6.00;;;4.10;;
78856;SDS011;68207;50.078;19.936;2023-04-29T12:27:24;5.80;;;4.20;;
78856;SDS011;68207;50.078;19.936;2023-04-29T12:29:50;8.70;;;4.10;;
78856;SDS011;68207;50.078;19.936;2023-04-29T12:34:44;6.20;;;3.80;;
78856;SDS011;68207;50.078;19.936;2023-04-29T12:37:11;5.20;;;4.30;;
78856;SDS011;68207;50.078;19.936;2023-04-29T12:39:37;6.50;;;4.10;;
78856;SDS011;68207;50.078;19.936;2023-04-29T12:42:02;7.80;;;4.40;;
78856;SDS011;68207;50.078;19.936;2023-04-29T12:44:34;7.60;;;4.30;;
78856;SDS011;68207;50.078;19.936;2023-04-29T12:47:07;6.30;;;4.70;;
78856;SDS011;68207;50.078;19.936;2023-04-29T12:49:34;6.80;;;4.40;;
78856;SDS011;68207;50.078;19.936;2023-04-29T12:52:00;7.20;;;4.30;;
78856;SDS011;68207;50.078;19.936;2023-04-29T12:54:26;5.80;;;3.90;;
78856;SDS011;68207;50.078;19.936;2023-04-29T12:56:51;5.70;;;4.30;;
78856;SDS011;68207;50.078;19.936;2023-04-29T12:59:17;5.20;;;3.90;;
78856;SDS011;68207;50.078;19.936;2023-04-29T13:01:43;7.00;;;4.30;;
78856;SDS011;68207;50.078;19.936;2023-04-29T13:04:08;6.10;;;4.30;;
78856;SDS011;68207;50.078;19.936;2023-04-29T13:06:35;7.70;;;4.20;;
78856;SDS011;68207;50.078;19.936;2023-04-29T13:09:04;6.60;;;3.90;;
78856;SDS011;68207;50.078;19.936;2023-04-29T13:11:30;5.20;;;4.00;;
78856;SDS011;68207;50.078;19.936;2023-04-29T13:13:56;6.10;;;4.10;;
78856;SDS011;68207;50.078;19.936;2023-04-29T13:16:21;6.10;;;4.40;;
78856;SDS011;68207;50.078;19.936;2023-04-29T13:18:48;5.70;;;3.90;;
78856;SDS011;68207;50.078;19.936;2023-04-29T13:21:13;5.70;;;4.10;;
78856;SDS011;68207;50.078;19.936;2023-04-29T13:23:39;9.20;;;4.10;;
78856;SDS011;68207;50.078;19.936;2023-04-29T13:26:05;6.40;;;4.10;;
78856;SDS011;68207;50.078;19.936;2023-04-29T13:28:30;4.90;;;3.70;;
78856;SDS011;68207;50.078;19.936;2023-04-29T13:30:55;8.50;;;4.60;;
78856;SDS011;68207;50.078;19.936;2023-04-29T13:33:21;6.80;;;4.90;;
78856;SDS011;68207;50.078;19.936;2023-04-29T13:35:46;5.50;;;4.10;;
78856;SDS011;68207;50.078;19.936;2023-04-29T13:38:12;5.10;;;4.10;;
78856;SDS011;68207;50.078;19.936;2023-04-29T13:40:37;7.30;;;4.50;;
78856;SDS011;68207;50.078;19.936;2023-04-29T13:43:03;7.70;;;4.60;;
78856;SDS011;68207;50.078;19.936;2023-04-29T13:45:28;10.10;;;5.00;;
78856;SDS011;68207;50.078;19.936;2023-04-29T13:47:53;8.10;;;5.30;;
78856;SDS011;68207;50.078;19.936;2023-04-29T13:50:18;6.50;;;4.60;;
78856;SDS011;68207;50.078;19.936;2023-04-29T13:52:44;7.20;;;4.80;;
78856;SDS011;68207;50.078;19.936;2023-04-29T13:55:10;8.10;;;4.90;;
78856;SDS011;68207;50.078;19.936;2023-04-29T13:57:35;6.50;;;4.60;;
78856;SDS011;68207;50.078;19.936;2023-04-29T14:00:01;5.40;;;4.20;;
78856;SDS011;68207;50.078;19.936;2023-04-29T14:02:26;7.60;;;4.50;;
78856;SDS011;68207;50.078;19.936;2023-04-29T14:04:52;7.90;;;4.70;;
78856;SDS011;68207;50.078;19.936;2023-04-29T14:07:17;6.70;;;4.70;;
78856;SDS011;68207;50.078;19.936;2023-04-29T14:09:42;8.40;;;4.80;;
78856;SDS011;68207;50.078;19.936;2023-04-29T14:12:07;6.90;;;4.70;;
78856;SDS011;68207;50.078;19.936;2023-04-29T14:14:33;8.20;;;5.10;;
78856;SDS011;68207;50.078;19.936;2023-04-29T14:16:58;7.80;;;5.00;;
78856;SDS011;68207;50.078;19.936;2023-04-29T14:19:25;5.90;;;4.80;;
78856;SDS011;68207;50.078;19.936;2023-04-29T14:21:50;8.30;;;4.70;;
78856;SDS011;68207;50.078;19.936;2023-04-29T14:24:15;7.00;;;4.80;;
78856;SDS011;68207;50.078;19.936;2023-04-29T14:26:41;6.30;;;4.80;;
78856;SDS011;68207;50.078;19.936;2023-04-29T14:29:07;6.10;;;4.70;;
78856;SDS011;68207;50.078;19.936;2023-04-29T14:31:33;8.80;;;5.20;;
78856;SDS011;68207;50.078;19.936;2023-04-29T14:34:02;6.70;;;4.80;;
78856;SDS011;68207;50.078;19.936;2023-04-29T14:36:28;7.90;;;5.30;;
78856;SDS011;68207;50.078;19.936;2023-04-29T14:38:53;8.10;;;5.10;;
78856;SDS011;68207;50.078;19.936;2023-04-29T14:41:19;10.00;;;4.80;;
78856;SDS011;68207;50.078;19.936;2023-04-29T14:43:45;8.20;;;5.40;;
78856;SDS011;68207;50.078;19.936;2023-04-29T14:46:11;8.60;;;5.00;;
78856;SDS011;68207;50.078;19.936;2023-04-29T14:48:36;7.50;;;4.80;;
78856;SDS011;68207;50.078;19.936;2023-04-29T14:51:02;6.70;;;4.50;;
78856;SDS011;68207;50.078;19.936;2023-04-29T14:53:27;6.70;;;5.00;;
78856;SDS011;68207;50.078;19.936;2023-04-29T14:55:53;6.00;;;4.80;;